createdAt,value
2019-03-24T00:01:18.810Z,9.50
2019-03-24T00:03:52.045Z,9.50
2019-03-24T00:06:25.591Z,9.40
2019-03-24T00:08:59.019Z,9.40
2019-03-24T00:11:32.591Z,9.30
2019-03-24T00:14:05.853Z,9.30
2019-03-24T00:16:38.973Z,9.20
2019-03-24T00:19:11.962Z,9.20
2019-03-24T00:21:45.291Z,9.20
2019-03-24T00:24:21.558Z,9.20
2019-03-24T00:26:55.042Z,9.10
2019-03-24T00:29:28.070Z,9.10
2019-03-24T00:32:01.450Z,9.10
2019-03-24T00:34:34.703Z,9.00
2019-03-24T00:37:08.637Z,9.00
2019-03-24T00:39:42.102Z,9.00
2019-03-24T00:42:15.954Z,9.00
2019-03-24T00:44:49.407Z,9.00
2019-03-24T00:47:22.112Z,9.00
2019-03-24T00:49:55.897Z,9.00
2019-03-24T00:52:29.454Z,8.90
2019-03-24T00:55:02.546Z,8.90
2019-03-24T00:57:37.610Z,8.90
2019-03-24T01:00:12.361Z,8.90
2019-03-24T01:02:45.851Z,8.90
2019-03-24T01:05:19.379Z,8.90
2019-03-24T01:07:52.452Z,8.80
2019-03-24T01:10:26.612Z,8.80
2019-03-24T01:12:59.863Z,8.80
2019-03-24T01:15:33.424Z,8.80
2019-03-24T01:18:07.254Z,8.80
2019-03-24T01:20:40.899Z,8.80
2019-03-24T01:23:14.459Z,8.70
2019-03-24T01:25:48.177Z,8.70
2019-03-24T01:28:22.142Z,8.70
2019-03-24T01:30:58.603Z,8.70
2019-03-24T01:33:31.694Z,8.70
2019-03-24T01:36:05.980Z,8.70
2019-03-24T01:38:39.299Z,8.70
2019-03-24T01:41:13.159Z,8.70
2019-03-24T01:43:50.288Z,8.60
2019-03-24T01:46:24.533Z,8.60
2019-03-24T01:48:57.808Z,8.60
2019-03-24T01:51:31.946Z,8.60
2019-03-24T01:54:05.045Z,8.50
2019-03-24T01:56:38.502Z,8.50
2019-03-24T01:59:11.621Z,8.50
2019-03-24T02:01:45.074Z,8.50
2019-03-24T02:04:18.421Z,8.40
2019-03-24T02:06:53.115Z,8.40
2019-03-24T02:09:26.214Z,8.30
2019-03-24T02:11:59.737Z,8.30
2019-03-24T02:14:32.873Z,8.30
2019-03-24T02:17:06.354Z,8.30
2019-03-24T02:19:40.061Z,8.20
2019-03-24T02:22:14.131Z,8.20
2019-03-24T02:24:49.360Z,8.10
2019-03-24T02:27:22.717Z,8.10
2019-03-24T02:29:57.331Z,8.10
2019-03-24T02:32:30.567Z,8.00
2019-03-24T02:35:06.395Z,8.00
2019-03-24T02:37:41.396Z,8.10
2019-03-24T02:40:16.301Z,8.00
2019-03-24T02:42:52.649Z,8.00
2019-03-24T02:45:25.952Z,8.10
2019-03-24T02:47:59.513Z,8.00
2019-03-24T02:50:35.758Z,8.00
2019-03-24T02:53:12.183Z,8.00
2019-03-24T02:55:46.930Z,7.90
2019-03-24T02:58:20.856Z,7.90
2019-03-24T03:00:55.140Z,7.90
2019-03-24T03:03:29.126Z,7.90
2019-03-24T03:06:02.635Z,7.90
2019-03-24T03:08:40.502Z,7.90
2019-03-24T03:11:13.639Z,7.90
2019-03-24T03:13:47.105Z,7.90
2019-03-24T03:16:20.573Z,7.90
2019-03-24T03:18:54.052Z,7.90
2019-03-24T03:21:35.328Z,7.80
2019-03-24T03:24:09.449Z,7.80
2019-03-24T03:26:44.092Z,7.80
2019-03-24T03:29:17.394Z,7.80
2019-03-24T03:31:50.791Z,7.80
2019-03-24T03:34:24.617Z,7.80
2019-03-24T03:37:01.682Z,7.80
2019-03-24T03:39:35.437Z,7.70
2019-03-24T03:42:12.644Z,7.70
2019-03-24T03:44:49.191Z,7.70
2019-03-24T03:47:22.444Z,7.60
2019-03-24T03:49:56.026Z,7.60
2019-03-24T03:52:29.888Z,7.60
2019-03-24T03:55:04.040Z,7.60
2019-03-24T03:57:37.776Z,7.60
2019-03-24T04:00:13.925Z,7.60
2019-03-24T04:02:49.877Z,7.60
2019-03-24T04:05:23.084Z,7.60
2019-03-24T04:07:58.679Z,7.60
2019-03-24T04:10:32.165Z,7.60
2019-03-24T04:13:05.978Z,7.60
2019-03-24T04:15:39.134Z,7.60
2019-03-24T04:18:14.099Z,7.60
2019-03-24T04:20:48.145Z,7.60
2019-03-24T04:23:21.717Z,7.60
2019-03-24T04:25:55.430Z,7.50
2019-03-24T04:28:29.120Z,7.50
2019-03-24T04:31:02.747Z,7.50
2019-03-24T04:33:36.713Z,7.40
2019-03-24T04:36:09.904Z,7.50
2019-03-24T04:38:44.251Z,7.50
2019-03-24T04:41:18.031Z,7.40
2019-03-24T04:43:51.800Z,7.40
2019-03-24T04:46:25.293Z,7.40
2019-03-24T04:48:58.789Z,7.40
2019-03-24T04:51:32.473Z,7.40
2019-03-24T04:54:07.273Z,7.40
2019-03-24T04:56:40.533Z,7.30
2019-03-24T04:59:13.888Z,7.30
2019-03-24T05:01:47.229Z,7.30
2019-03-24T05:04:21.123Z,7.30
2019-03-24T05:06:54.873Z,7.30
2019-03-24T05:09:28.395Z,7.30
2019-03-24T05:12:01.445Z,7.20
2019-03-24T05:14:34.887Z,7.30
2019-03-24T05:17:09.167Z,7.30
2019-03-24T05:19:42.304Z,7.30
2019-03-24T05:22:15.952Z,7.30
2019-03-24T05:24:50.075Z,7.20
2019-03-24T05:27:24.019Z,7.20
2019-03-24T05:29:56.932Z,7.20
2019-03-24T05:32:30.223Z,7.20
2019-03-24T05:35:02.935Z,7.20
2019-03-24T05:37:36.295Z,7.20
2019-03-24T05:40:09.783Z,7.20
2019-03-24T05:42:43.187Z,7.10
2019-03-24T05:45:16.568Z,7.10
2019-03-24T05:47:49.862Z,7.10
2019-03-24T05:50:23.273Z,7.10
2019-03-24T05:52:56.653Z,7.10
2019-03-24T05:55:29.886Z,7.00
2019-03-24T05:58:02.979Z,7.00
2019-03-24T06:00:37.690Z,7.00
2019-03-24T06:03:10.843Z,7.00
2019-03-24T06:05:43.804Z,6.90
2019-03-24T06:08:16.250Z,6.90
2019-03-24T06:10:49.251Z,6.80
2019-03-24T06:13:23.051Z,6.80
2019-03-24T06:15:56.310Z,6.80
2019-03-24T06:18:31.140Z,6.70
2019-03-24T06:21:04.762Z,6.70
2019-03-24T06:23:38.402Z,6.60
2019-03-24T06:26:12.687Z,6.60
2019-03-24T06:28:47.473Z,6.50
2019-03-24T06:31:20.887Z,6.40
2019-03-24T06:33:56.983Z,6.30
2019-03-24T06:36:31.906Z,6.20
2019-03-24T06:39:05.896Z,6.00
2019-03-24T06:41:39.778Z,5.90
2019-03-24T06:44:14.060Z,5.90
2019-03-24T06:46:47.562Z,5.80
2019-03-24T06:49:21.424Z,5.70
2019-03-24T06:51:54.588Z,5.60
2019-03-24T06:54:29.951Z,5.50
2019-03-24T06:57:03.522Z,5.50
2019-03-24T06:59:37.097Z,5.50
2019-03-24T07:02:11.732Z,5.50
2019-03-24T07:04:48.406Z,5.60
2019-03-24T07:07:25.037Z,5.60
2019-03-24T07:09:58.586Z,5.80
2019-03-24T07:12:32.592Z,5.90
2019-03-24T07:15:07.108Z,6.00
2019-03-24T07:17:40.282Z,6.20
2019-03-24T07:20:14.433Z,6.20
2019-03-24T07:22:49.950Z,6.30
2019-03-24T07:25:23.584Z,6.40
2019-03-24T07:27:57.576Z,6.50
2019-03-24T07:30:30.519Z,6.60
2019-03-24T07:33:03.826Z,6.60
2019-03-24T07:35:40.167Z,6.70
2019-03-24T07:38:15.771Z,6.90
2019-03-24T07:40:50.088Z,7.00
2019-03-24T07:43:23.096Z,7.10
2019-03-24T07:45:56.662Z,7.20
2019-03-24T07:48:30.975Z,7.30
2019-03-24T07:51:04.878Z,7.30
2019-03-24T07:53:38.237Z,7.40
2019-03-24T07:56:12.662Z,7.40
2019-03-24T07:58:46.084Z,7.50
2019-03-24T08:01:20.397Z,7.60
2019-03-24T08:03:54.140Z,7.80
2019-03-24T08:06:29.515Z,7.90
2019-03-24T08:09:02.443Z,8.00
2019-03-24T08:11:39.212Z,8.10
2019-03-24T08:14:12.402Z,8.20
2019-03-24T08:16:45.852Z,8.30
2019-03-24T08:19:20.570Z,8.40
2019-03-24T08:21:53.813Z,8.50
2019-03-24T08:24:27.055Z,8.50
2019-03-24T08:27:01.349Z,8.60
2019-03-24T08:29:34.616Z,8.70
2019-03-24T08:32:07.548Z,8.70
2019-03-24T08:34:41.251Z,8.80
2019-03-24T08:37:15.038Z,8.90
2019-03-24T08:39:48.406Z,9.20
2019-03-24T08:42:22.070Z,9.40
2019-03-24T08:44:55.580Z,9.50
2019-03-24T08:47:28.715Z,9.80
2019-03-24T08:50:01.863Z,10.00
2019-03-24T08:52:35.537Z,10.20
2019-03-24T08:55:10.605Z,10.10
2019-03-24T08:57:44.607Z,10.10
2019-03-24T09:00:17.954Z,10.20
2019-03-24T09:02:55.660Z,10.30
2019-03-24T09:05:29.448Z,10.30
2019-03-24T09:08:03.939Z,10.40
2019-03-24T09:10:58.545Z,10.40
2019-03-24T09:13:35.540Z,10.40
2019-03-24T09:16:08.738Z,10.30
2019-03-24T09:18:51.980Z,10.40
2019-03-24T09:21:20.787Z,10.30
2019-03-24T09:23:54.958Z,10.40
2019-03-24T09:26:29.052Z,10.60
2019-03-24T09:29:05.186Z,10.70
2019-03-24T09:31:39.862Z,10.70
2019-03-24T09:34:13.474Z,10.70
2019-03-24T09:36:46.749Z,10.70
2019-03-24T09:39:20.073Z,10.90
2019-03-24T09:41:53.645Z,11.00
2019-03-24T09:44:27.405Z,11.10
2019-03-24T09:47:02.497Z,11.20
2019-03-24T09:49:36.093Z,11.30
2019-03-24T09:52:09.946Z,11.30
2019-03-24T09:54:45.433Z,11.40
2019-03-24T09:57:19.035Z,11.50
2019-03-24T09:59:51.653Z,11.70
2019-03-24T10:02:24.262Z,11.80
2019-03-24T10:04:56.364Z,11.80
2019-03-24T10:07:28.842Z,11.90
2019-03-24T10:10:01.827Z,12.10
2019-03-24T10:12:39.765Z,12.80
2019-03-24T10:15:11.679Z,14.40
2019-03-24T10:17:43.950Z,15.20
2019-03-24T10:20:18.878Z,15.80
2019-03-24T10:22:51.745Z,16.30
2019-03-24T10:25:24.450Z,16.50
2019-03-24T10:27:56.910Z,15.60
2019-03-24T10:30:29.257Z,15.00
2019-03-24T10:33:01.365Z,15.20
2019-03-24T10:35:33.558Z,16.00
2019-03-24T10:38:05.673Z,15.80
2019-03-24T10:43:41.764Z,15.70
2019-03-24T10:46:14.243Z,16.40
2019-03-24T10:48:46.403Z,16.90
2019-03-24T10:51:18.921Z,16.90
2019-03-24T10:53:52.093Z,17.00
2019-03-24T10:56:24.164Z,17.20
2019-03-24T10:58:57.299Z,17.80
2019-03-24T11:01:30.316Z,18.20
2019-03-24T11:04:02.593Z,17.80
2019-03-24T11:06:34.890Z,17.60
2019-03-24T11:09:08.028Z,17.50
2019-03-24T11:11:40.055Z,18.00
2019-03-24T11:14:18.149Z,17.80
2019-03-24T11:16:50.883Z,17.70
2019-03-24T11:19:23.134Z,18.00
2019-03-24T11:21:59.614Z,17.80
2019-03-24T11:24:31.982Z,17.40
2019-03-24T11:27:04.791Z,17.20
2019-03-24T11:29:40.086Z,17.50
2019-03-24T11:32:13.345Z,17.50
2019-03-24T11:34:45.993Z,17.90
2019-03-24T11:37:20.547Z,17.90
2019-03-24T11:39:59.064Z,17.90
2019-03-24T11:42:33.690Z,18.20
2019-03-24T11:45:10.953Z,18.50
2019-03-24T11:47:45.034Z,18.10
2019-03-24T11:50:18.389Z,17.90
2019-03-24T11:52:52.400Z,18.00
2019-03-24T11:55:28.840Z,17.80
2019-03-24T11:58:06.414Z,17.40
2019-03-24T12:00:42.961Z,17.50
2019-03-24T12:03:18.082Z,18.00
2019-03-24T12:05:58.444Z,18.10
2019-03-24T12:08:35.799Z,18.60
2019-03-24T12:11:09.847Z,18.90
2019-03-24T12:13:42.624Z,18.50
2019-03-24T12:16:18.589Z,17.90
2019-03-24T12:19:01.969Z,17.60
2019-03-24T12:21:36.377Z,17.30
2019-03-24T12:24:10.117Z,17.40
2019-03-24T12:26:47.417Z,17.50
2019-03-24T12:29:29.902Z,18.30
2019-03-24T12:32:05.228Z,17.90
2019-03-24T12:34:43.192Z,17.10
2019-03-24T12:37:17.189Z,17.10
2019-03-24T12:39:53.048Z,17.10
2019-03-24T12:42:29.593Z,17.40
2019-03-24T12:45:09.461Z,17.40
2019-03-24T12:47:49.536Z,17.60
2019-03-24T12:50:31.772Z,17.70
2019-03-24T12:53:03.396Z,17.30
2019-03-24T12:55:36.382Z,16.60
2019-03-24T12:58:09.693Z,16.20
2019-03-24T13:00:43.385Z,15.80
2019-03-24T13:03:16.436Z,15.60
2019-03-24T13:05:51.811Z,15.70
2019-03-24T13:08:25.637Z,15.50
2019-03-24T13:10:58.994Z,15.20
2019-03-24T13:13:31.865Z,15.20
2019-03-24T13:16:04.845Z,15.00
2019-03-24T13:18:40.092Z,14.90
2019-03-24T13:21:12.395Z,15.10
2019-03-24T13:23:45.361Z,14.70
2019-03-24T13:26:21.692Z,14.40
2019-03-24T13:28:54.991Z,14.90
2019-03-24T13:31:28.016Z,15.60
2019-03-24T13:34:01.016Z,15.80
2019-03-24T13:36:38.901Z,16.60
2019-03-24T13:39:12.312Z,16.60
2019-03-24T13:41:48.476Z,17.40
2019-03-24T13:44:22.073Z,18.10
2019-03-24T13:46:54.791Z,18.50
2019-03-24T13:49:28.889Z,18.40
2019-03-24T13:52:03.121Z,18.10
2019-03-24T13:54:38.564Z,18.50
2019-03-24T13:57:11.481Z,18.40
2019-03-24T13:59:46.302Z,18.40
2019-03-24T14:02:19.112Z,19.00
2019-03-24T14:04:51.890Z,19.70
2019-03-24T14:07:24.065Z,20.40
2019-03-24T14:09:56.663Z,20.80
2019-03-24T14:12:29.134Z,21.00
2019-03-24T14:15:02.468Z,20.50
2019-03-24T14:17:38.959Z,20.70
2019-03-24T14:20:12.885Z,20.90
2019-03-24T14:22:46.923Z,20.70
2019-03-24T14:25:19.730Z,20.00
2019-03-24T14:27:56.957Z,19.80
2019-03-24T14:30:44.463Z,19.80
2019-03-24T14:33:17.438Z,19.80
2019-03-24T14:35:52.789Z,20.40
2019-03-24T14:38:25.760Z,19.80
2019-03-24T14:40:58.611Z,20.30
2019-03-24T14:43:33.758Z,20.50
2019-03-24T14:46:06.797Z,20.80
2019-03-24T14:48:41.083Z,21.20
2019-03-24T14:51:19.755Z,20.80
2019-03-24T14:53:58.121Z,21.00
2019-03-24T14:56:34.088Z,21.80
2019-03-24T14:59:09.174Z,22.00
2019-03-24T15:01:43.943Z,21.90
2019-03-24T15:04:26.980Z,22.30
2019-03-24T15:07:04.364Z,22.30
2019-03-24T15:09:40.399Z,21.70
2019-03-24T15:12:15.724Z,21.70
2019-03-24T15:14:51.811Z,21.60
2019-03-24T15:17:26.867Z,21.70
2019-03-24T15:20:01.869Z,21.80
2019-03-24T15:22:35.543Z,22.00
2019-03-24T15:25:09.099Z,21.40
2019-03-24T15:27:45.272Z,21.20
2019-03-24T15:30:23.682Z,20.90
2019-03-24T15:32:54.248Z,21.00
2019-03-24T15:35:26.505Z,21.00
2019-03-24T15:38:08.119Z,20.80
2019-03-24T15:40:35.802Z,20.70
2019-03-24T15:43:09.116Z,20.40
2019-03-24T15:45:43.513Z,20.60
2019-03-24T15:48:16.125Z,21.10
2019-03-24T15:50:50.625Z,21.30
2019-03-24T15:53:24.354Z,21.50
2019-03-24T15:55:57.667Z,21.30
2019-03-24T15:58:30.754Z,21.00
2019-03-24T16:01:03.589Z,21.00
2019-03-24T16:03:37.562Z,20.90
2019-03-24T16:06:10.165Z,20.40
2019-03-24T16:08:45.948Z,20.30
2019-03-24T16:11:19.029Z,21.00
2019-03-24T16:13:51.538Z,21.00
2019-03-24T16:16:24.151Z,21.10
2019-03-24T16:18:57.469Z,20.90
2019-03-24T16:21:31.285Z,20.60
2019-03-24T16:24:05.138Z,20.20
2019-03-24T16:26:38.433Z,20.10
2019-03-24T16:29:13.887Z,20.20
2019-03-24T16:31:47.756Z,20.00
2019-03-24T16:34:21.721Z,20.00
2019-03-24T16:36:57.102Z,20.00
2019-03-24T16:39:29.515Z,19.90
2019-03-24T16:42:04.837Z,19.60
2019-03-24T16:44:38.084Z,19.00
2019-03-24T16:47:12.270Z,18.70
2019-03-24T16:49:45.230Z,18.70
2019-03-24T16:52:18.150Z,18.90
2019-03-24T16:54:51.258Z,18.70
2019-03-24T16:57:31.911Z,18.50
2019-03-24T17:00:06.837Z,18.30
2019-03-24T17:02:41.971Z,18.20
2019-03-24T17:05:15.888Z,17.70
2019-03-24T17:07:50.214Z,17.50
2019-03-24T17:10:23.906Z,17.40
2019-03-24T17:12:57.550Z,17.20
2019-03-24T17:15:31.077Z,16.90
2019-03-24T17:18:06.700Z,16.50
2019-03-24T17:20:39.661Z,16.00
2019-03-24T17:23:14.642Z,15.50
2019-03-24T17:25:47.237Z,15.10
2019-03-24T17:28:19.839Z,14.60
2019-03-24T17:30:53.180Z,14.00
2019-03-24T17:33:27.049Z,13.40
2019-03-24T17:36:01.022Z,12.80
2019-03-24T17:38:34.014Z,12.40
2019-03-24T17:41:07.605Z,12.10
2019-03-24T17:43:40.284Z,11.80
2019-03-24T17:46:14.143Z,11.50
2019-03-24T17:48:50.068Z,11.30
2019-03-24T17:51:29.404Z,11.20
2019-03-24T17:54:19.409Z,11.00
2019-03-24T17:57:12.136Z,10.90
2019-03-24T17:59:52.786Z,10.80
2019-03-24T18:02:30.795Z,10.70
2019-03-24T18:05:08.263Z,10.50
2019-03-24T18:07:42.296Z,10.40
2019-03-24T18:10:19.660Z,10.30
2019-03-24T18:12:54.275Z,10.20
2019-03-24T18:15:28.691Z,10.00
2019-03-24T18:18:02.926Z,9.90
2019-03-24T18:20:37.748Z,9.80
2019-03-24T18:23:12.299Z,9.70
2019-03-24T18:25:46.967Z,9.60
2019-03-24T18:28:21.327Z,9.60
2019-03-24T18:30:56.100Z,9.50
2019-03-24T18:33:29.562Z,9.40
2019-03-24T18:36:03.828Z,9.30
2019-03-24T18:38:37.836Z,9.20
2019-03-24T18:41:13.006Z,9.20
2019-03-24T18:43:46.486Z,9.10
2019-03-24T18:46:21.746Z,9.00
2019-03-24T18:48:55.002Z,8.90
2019-03-24T18:51:30.865Z,8.80
2019-03-24T18:54:05.877Z,8.80
2019-03-24T18:56:39.504Z,8.70
2019-03-24T18:59:14.289Z,8.70
2019-03-24T19:01:48.275Z,8.70
2019-03-24T19:04:25.184Z,8.60
2019-03-24T19:06:58.352Z,8.50
2019-03-24T19:09:30.959Z,8.60
2019-03-24T19:12:07.905Z,8.50
2019-03-24T19:14:42.108Z,8.40
2019-03-24T19:17:17.346Z,8.30
2019-03-24T19:19:51.234Z,8.30
2019-03-24T19:22:33.315Z,8.10
2019-03-24T19:24:59.597Z,8.10
2019-03-24T19:27:34.735Z,8.00
2019-03-24T19:30:10.988Z,8.00
2019-03-24T19:32:48.248Z,8.00
2019-03-24T19:35:21.692Z,8.00
2019-03-24T19:37:57.014Z,7.90
2019-03-24T19:40:30.492Z,7.90
2019-03-24T19:43:04.560Z,7.80
2019-03-24T19:45:37.381Z,7.70
2019-03-24T19:48:10.588Z,7.60
2019-03-24T19:50:43.594Z,7.60
2019-03-24T19:53:17.132Z,7.50
2019-03-24T19:55:49.668Z,7.40
2019-03-24T19:58:22.439Z,7.40
2019-03-24T20:00:56.806Z,7.40
2019-03-24T20:03:31.330Z,7.30
2019-03-24T20:06:04.021Z,7.30
2019-03-24T20:08:36.942Z,7.20
2019-03-24T20:11:09.772Z,7.10
2019-03-24T20:13:43.409Z,7.10
2019-03-24T20:16:16.226Z,7.00
2019-03-24T20:18:51.842Z,7.00
2019-03-24T20:21:24.597Z,6.90
2019-03-24T20:23:59.604Z,7.00
2019-03-24T20:26:34.032Z,7.00
2019-03-24T20:29:09.397Z,7.00
2019-03-24T20:31:43.024Z,6.90
2019-03-24T20:34:21.401Z,6.90
2019-03-24T20:36:54.802Z,6.80
2019-03-24T20:39:28.038Z,6.80
2019-03-24T20:42:03.162Z,6.80
2019-03-24T20:44:36.792Z,6.70
2019-03-24T20:47:09.968Z,6.60
2019-03-24T20:49:44.351Z,6.60
2019-03-24T20:52:17.596Z,6.50
2019-03-24T20:54:50.303Z,6.50
2019-03-24T20:57:23.250Z,6.40
2019-03-24T20:59:55.933Z,6.50
2019-03-24T21:02:32.697Z,6.40
2019-03-24T21:05:11.095Z,6.40
2019-03-24T21:07:45.606Z,6.20
2019-03-24T21:10:19.298Z,6.10
2019-03-24T21:12:52.160Z,6.10
2019-03-24T21:15:26.443Z,6.00
2019-03-24T21:17:59.663Z,5.90
2019-03-24T21:20:32.616Z,5.80
2019-03-24T21:23:06.220Z,5.70
2019-03-24T21:25:39.426Z,5.60
2019-03-24T21:28:13.553Z,5.60
2019-03-24T21:30:46.691Z,5.60
2019-03-24T21:33:19.667Z,5.60
2019-03-24T21:35:52.431Z,5.50
2019-03-24T21:38:25.568Z,5.40
2019-03-24T21:40:59.495Z,5.30
2019-03-24T21:43:32.676Z,5.30
2019-03-24T21:46:06.215Z,5.30
2019-03-24T21:48:41.426Z,5.20
2019-03-24T21:51:17.416Z,5.20
2019-03-24T21:53:49.959Z,5.20
2019-03-24T21:56:25.468Z,5.00
2019-03-24T21:58:58.117Z,4.90
2019-03-24T22:01:36.245Z,4.90
2019-03-24T22:04:15.175Z,4.80
2019-03-24T22:06:50.880Z,4.90
2019-03-24T22:09:27.893Z,4.80
2019-03-24T22:12:02.910Z,4.70
2019-03-24T22:14:38.544Z,4.80
2019-03-24T22:17:15.475Z,4.90
2019-03-24T22:19:48.250Z,5.00
2019-03-24T22:22:24.865Z,5.10
2019-03-24T22:24:57.442Z,5.10
2019-03-24T22:27:30.195Z,5.20
2019-03-24T22:30:03.243Z,5.20
2019-03-24T22:32:39.285Z,5.20
2019-03-24T22:35:17.826Z,5.30
2019-03-24T22:37:54.872Z,5.30
2019-03-24T22:40:28.097Z,5.30
2019-03-24T22:43:03.050Z,5.30
2019-03-24T22:45:36.083Z,5.30
2019-03-24T22:48:09.568Z,5.40
2019-03-24T22:50:43.464Z,5.50
2019-03-24T22:53:18.157Z,5.50
2019-03-24T22:55:53.915Z,5.50
2019-03-24T22:58:27.817Z,5.50
2019-03-24T23:01:04.089Z,5.50
2019-03-24T23:03:39.611Z,5.40
2019-03-24T23:06:16.065Z,5.30
2019-03-24T23:08:49.627Z,5.30
2019-03-24T23:11:24.691Z,5.20
2019-03-24T23:13:58.561Z,5.20
2019-03-24T23:16:32.313Z,5.20
2019-03-24T23:19:10.113Z,5.30
2019-03-24T23:21:43.537Z,5.20
2019-03-24T23:24:17.304Z,5.00
2019-03-24T23:26:49.910Z,5.00
2019-03-24T23:29:23.954Z,4.90
2019-03-24T23:31:57.359Z,4.90
2019-03-24T23:34:31.100Z,4.90
2019-03-24T23:37:04.403Z,4.80
2019-03-24T23:39:41.148Z,4.60
2019-03-24T23:42:16.095Z,4.60
2019-03-24T23:44:49.557Z,4.70
2019-03-24T23:47:22.659Z,4.60
2019-03-24T23:49:55.560Z,4.60
2019-03-24T23:52:28.531Z,4.60
2019-03-24T23:55:02.721Z,4.60
2019-03-24T23:57:37.958Z,4.60
